Time;durP1;ratioP1;P1;durP2;ratioP2;P2;SDS_P1;SDS_P2;PMS_P1;PMS_P2;Temp;Humidity;BMP_temperature;BMP_pressure;BME280_temperature;BME280_humidity;BME280_pressure;Samples;Min_cycle;Max_cycle;Signal;HPM_P1;HPM_P2
2022/01/27 00:05:18;;;;;;;39.53;18.30;;;;;;;2.99;85.88;102730.06;5013903;28;20065;-77
2022/01/27 00:07:52;;;;;;;41.65;16.80;;;;;;;3.00;86.35;102726.47;5027829;28;20108;-77
2022/01/27 00:10:28;;;;;;;45.70;18.98;;;;;;;2.98;85.97;102717.50;5017929;28;20386;-77
2022/01/27 00:12:55;;;;;;;42.25;18.48;;;;;;;3.00;86.01;102701.38;5013512;28;20084;-77
2022/01/27 00:15:28;;;;;;;41.90;19.15;;;;;;;2.98;86.39;102681.66;5018019;28;20511;-77
2022/01/27 00:18:01;;;;;;;49.08;19.00;;;;;;;2.95;86.15;102670.97;5036713;28;20056;-72
2022/01/27 00:20:27;;;;;;;44.03;19.08;;;;;;;2.98;86.11;102670.91;5012756;28;20104;-77
2022/01/27 00:22:52;;;;;;;45.42;18.80;;;;;;;2.96;86.26;102670.06;5027916;28;20112;-77
2022/01/27 00:25:17;;;;;;;45.40;18.75;;;;;;;2.95;86.09;102666.47;5028423;28;20638;-77
2022/01/27 00:27:43;;;;;;;43.30;20.27;;;;;;;2.97;86.15;102671.81;5025477;28;20026;-77
2022/01/27 00:30:10;;;;;;;38.92;17.15;;;;;;;2.98;86.27;102671.78;5019057;28;20079;-77
2022/01/27 00:32:36;;;;;;;45.95;20.33;;;;;;;2.98;86.09;102684.34;5028231;28;21105;-77
2022/01/27 00:35:03;;;;;;;51.03;17.92;;;;;;;2.97;86.36;102679.91;5024474;28;20026;-76
2022/01/27 00:37:29;;;;;;;44.90;19.60;;;;;;;2.98;86.09;102687.03;5028002;28;20109;-72
2022/01/27 00:39:54;;;;;;;42.67;17.58;;;;;;;2.98;86.28;102682.56;5015977;28;20120;-76
2022/01/27 00:42:20;;;;;;;41.97;17.90;;;;;;;3.00;86.01;102682.56;5029309;28;20461;-76
2022/01/27 00:44:45;;;;;;;42.15;18.42;;;;;;;3.00;86.07;102667.31;5030483;28;20044;-76
2022/01/27 00:47:10;;;;;;;39.08;17.05;;;;;;;3.00;85.91;102656.56;5013887;28;20034;-71
2022/01/27 00:49:37;;;;;;;40.33;18.98;;;;;;;3.01;86.02;102652.06;5015686;28;20026;-76
2022/01/27 00:52:06;;;;;;;39.97;18.08;;;;;;;3.01;86.10;102655.66;5028968;28;20055;-75
2022/01/27 00:54:32;;;;;;;40.45;17.75;;;;;;;3.00;86.07;102651.19;5028542;28;20037;-77
2022/01/27 00:57:07;;;;;;;41.50;19.58;;;;;;;3.02;85.61;102653.84;5026940;28;20483;-76
2022/01/27 01:00:07;;;;;;;41.83;19.13;;;;;;;3.05;86.02;102649.31;5031555;28;20049;-78
2022/01/27 01:03:02;;;;;;;39.15;17.42;;;;;;;3.05;86.09;102657.38;5012372;28;20381;-77
2022/01/27 01:08:46;;;;;;;44.63;17.70;;;;;;;3.07;86.02;102644.81;5019864;28;20056;-77
2022/01/27 01:16:02;;;;;;;41.08;18.63;;;;;;;3.07;86.08;102635.84;5026408;28;20037;-78
2022/01/27 01:18:53;;;;;;;39.42;16.55;;;;;;;3.10;86.12;102624.19;5025441;28;20025;-77
2022/01/27 01:34:29;;;;;;;41.45;17.35;;;;;;;3.15;85.71;102612.44;5018742;28;20045;-71
2022/01/27 01:37:00;;;;;;;44.20;18.48;;;;;;;3.18;85.74;102615.13;5029832;28;20385;-77
2022/01/27 01:39:31;;;;;;;42.55;17.02;;;;;;;3.19;85.80;102600.75;5016319;28;20026;-72
2022/01/27 01:41:57;;;;;;;35.05;16.80;;;;;;;3.20;85.70;102586.38;5023832;28;20417;-76
2022/01/27 01:44:23;;;;;;;32.45;16.60;;;;;;;3.23;85.37;102588.16;5023312;28;20087;-75
2022/01/27 01:46:49;;;;;;;40.05;17.77;;;;;;;3.22;85.53;102572.94;5016794;28;20025;-71
2022/01/27 01:49:15;;;;;;;39.45;17.85;;;;;;;3.23;86.03;102583.66;5025290;28;20673;-71
2022/01/27 01:51:43;;;;;;;33.58;15.80;;;;;;;3.25;85.47;102597.06;5026193;28;20018;-77
2022/01/27 01:54:08;;;;;;;39.65;17.60;;;;;;;3.26;85.40;102601.53;5031061;28;20017;-77
2022/01/27 01:56:35;;;;;;;34.30;17.58;;;;;;;3.27;85.56;102600.66;5027427;28;20055;-73
2022/01/27 01:59:01;;;;;;;38.47;16.75;;;;;;;3.25;85.43;102589.91;5030683;28;20427;-77
2022/01/27 02:01:26;;;;;;;37.60;16.60;;;;;;;3.27;85.46;102592.59;5017744;28;20042;-77
2022/01/27 02:03:52;;;;;;;40.15;18.42;;;;;;;3.29;85.70;102580.88;5025613;28;20168;-76
2022/01/27 02:06:26;;;;;;;40.05;16.75;;;;;;;3.28;85.37;102583.59;5020504;28;20025;-71
2022/01/27 02:19:51;;;;;;;39.58;17.58;;;;;;;3.28;85.55;102536.06;5015529;28;20651;-77
2022/01/27 02:22:18;;;;;;;36.10;16.13;;;;;;;3.30;85.67;102542.31;5026078;28;20549;-73
2022/01/27 02:24:44;;;;;;;40.30;17.10;;;;;;;3.29;85.54;102548.59;5024197;28;20058;-75
2022/01/27 02:27:09;;;;;;;31.05;15.32;;;;;;;3.31;85.78;102551.25;5017520;28;20055;-77
2022/01/27 02:29:34;;;;;;;33.28;16.38;;;;;;;3.31;85.64;102544.09;5029418;28;20022;-72
2022/01/27 02:32:01;;;;;;;34.88;17.63;;;;;;;3.33;85.56;102546.75;5025552;28;20485;-77
2022/01/27 02:34:26;;;;;;;38.13;17.42;;;;;;;3.34;85.25;102545.84;5016006;28;20030;-79
2022/01/27 02:36:52;;;;;;;38.75;16.38;;;;;;;3.35;85.44;102535.97;5021263;28;20075;-77
2022/01/27 02:39:18;;;;;;;39.58;18.50;;;;;;;3.33;85.58;102547.66;5016234;28;20022;-77
2022/01/27 02:41:49;;;;;;;37.63;17.00;;;;;;;3.36;85.85;102540.44;5024122;28;20097;-77
2022/01/27 02:44:45;;;;;;;37.92;16.50;;;;;;;3.35;85.86;102518.03;5021809;28;20057;-77
2022/01/27 02:47:12;;;;;;;34.50;15.18;;;;;;;3.35;85.59;102523.41;5019258;28;20025;-79
2022/01/27 02:49:37;;;;;;;39.60;16.27;;;;;;;3.36;86.00;102535.03;5014186;28;20037;-77
2022/01/27 02:52:03;;;;;;;45.45;16.55;;;;;;;3.38;85.78;102538.63;5029869;28;20050;-76
2022/01/27 02:54:28;;;;;;;33.08;15.27;;;;;;;3.37;85.70;102520.72;5021118;28;20030;-78
2022/01/27 02:56:54;;;;;;;36.92;16.88;;;;;;;3.38;85.99;102526.06;5024427;28;20469;-77
2022/01/27 02:59:20;;;;;;;40.22;17.17;;;;;;;3.37;86.10;102499.19;5027880;28;20057;-80
2022/01/27 03:01:47;;;;;;;35.13;16.38;;;;;;;3.37;86.09;102489.31;5013584;28;20029;-77
2022/01/27 03:04:13;;;;;;;36.20;17.65;;;;;;;3.36;86.26;102476.78;5023453;28;20036;-71
2022/01/27 03:06:39;;;;;;;39.65;15.60;;;;;;;3.31;86.34;102468.78;5023089;28;20030;-71
2022/01/27 03:09:05;;;;;;;34.15;15.25;;;;;;;3.30;86.38;102487.63;5019414;28;20106;-79
2022/01/27 03:11:38;;;;;;;33.58;14.95;;;;;;;3.32;86.39;102494.78;5026907;28;20021;-80
2022/01/27 03:14:04;;;;;;;34.03;15.73;;;;;;;3.32;86.45;102492.06;5028172;28;20395;-73
2022/01/27 03:16:30;;;;;;;36.40;15.50;;;;;;;3.35;86.29;102490.25;5022545;28;20021;-76
2022/01/27 03:18:55;;;;;;;37.35;14.77;;;;;;;3.35;86.40;102482.16;5020108;28;20380;-73
2022/01/27 03:21:20;;;;;;;33.25;15.05;;;;;;;3.32;86.42;102472.38;5017346;28;20025;-79
2022/01/27 03:23:46;;;;;;;35.72;16.05;;;;;;;3.34;86.48;102481.28;5027391;28;20616;-77
2022/01/27 03:26:11;;;;;;;36.45;16.17;;;;;;;3.31;86.48;102468.78;5026783;28;20095;-79
2022/01/27 03:28:36;;;;;;;38.20;16.20;;;;;;;3.30;86.31;102458.91;5020393;28;20397;-75
2022/01/27 03:31:02;;;;;;;32.63;14.20;;;;;;;3.29;86.46;102472.41;5023214;28;20064;-78
2022/01/27 03:33:27;;;;;;;37.35;14.38;;;;;;;3.28;86.67;102468.81;5023295;28;20026;-77
2022/01/27 03:35:52;;;;;;;37.92;16.20;;;;;;;3.27;86.96;102463.50;5022704;28;20033;-73
2022/01/27 03:38:18;;;;;;;36.05;15.95;;;;;;;3.25;86.92;102465.28;5022648;28;20033;-77
2022/01/27 03:40:43;;;;;;;34.53;15.63;;;;;;;3.21;86.93;102463.56;5019344;28;20044;-77
2022/01/27 03:43:09;;;;;;;31.20;15.00;;;;;;;3.20;86.91;102473.44;5015071;28;20065;-78
2022/01/27 03:45:35;;;;;;;37.38;15.77;;;;;;;3.19;86.99;102468.09;5024552;28;20022;-76
2022/01/27 03:48:00;;;;;;;36.22;14.98;;;;;;;3.18;87.17;102474.38;5020923;28;20078;-78
2022/01/27 03:50:26;;;;;;;38.70;16.65;;;;;;;3.16;87.26;102473.50;5015001;28;20044;-74
2022/01/27 03:52:51;;;;;;;35.60;15.77;;;;;;;3.17;87.60;102462.75;5028194;28;20025;-78
2022/01/27 03:55:17;;;;;;;36.67;14.70;;;;;;;3.21;87.92;102466.25;5027647;28;20386;-75
2022/01/27 03:57:42;;;;;;;34.85;15.75;;;;;;;3.22;87.43;102455.50;5025635;28;20052;-77
2022/01/27 04:00:09;;;;;;;32.70;14.75;;;;;;;3.26;87.69;102450.94;5027374;28;20043;-76
2022/01/27 04:02:38;;;;;;;38.00;15.73;;;;;;;3.29;87.75;102445.50;5017002;28;20037;-77
2022/01/27 04:05:03;;;;;;;32.42;15.13;;;;;;;3.29;87.57;102437.44;5016767;28;20053;-78
2022/01/27 04:07:29;;;;;;;40.85;15.95;;;;;;;3.27;87.72;102428.53;5027514;28;20095;-72
2022/01/27 04:09:54;;;;;;;37.60;16.30;;;;;;;3.25;87.67;102424.94;5016814;28;20026;-79
2022/01/27 04:12:19;;;;;;;33.13;15.10;;;;;;;3.23;87.92;102410.66;5022710;28;20076;-76
2022/01/27 04:14:45;;;;;;;40.72;14.63;;;;;;;3.20;87.71;102419.66;5027291;28;20523;-71
2022/01/27 04:17:10;;;;;;;34.92;14.18;;;;;;;3.19;87.82;102419.69;5012676;28;20104;-72
2022/01/27 04:19:35;;;;;;;37.08;14.43;;;;;;;3.19;87.81;102433.13;5016981;28;20025;-76
2022/01/27 04:22:01;;;;;;;34.58;15.75;;;;;;;3.20;88.35;102416.97;5022253;28;20363;-78
2022/01/27 04:24:26;;;;;;;32.13;14.57;;;;;;;3.20;88.37;102410.69;5021992;28;20025;-75
2022/01/27 04:27:00;;;;;;;36.58;15.50;;;;;;;3.19;88.23;102403.56;5015716;28;20033;-73
2022/01/27 04:29:26;;;;;;;39.03;15.68;;;;;;;3.18;88.24;102415.22;5026357;28;20030;-77
2022/01/27 04:31:52;;;;;;;34.35;14.77;;;;;;;3.17;88.51;102422.41;5024228;28;20077;-73
2022/01/27 04:34:18;;;;;;;32.35;14.10;;;;;;;3.16;88.37;102407.16;5017165;28;20060;-73
2022/01/27 04:36:44;;;;;;;34.03;14.25;;;;;;;3.18;88.66;102399.09;5017668;28;20052;-74
2022/01/27 04:39:26;;;;;;;34.00;13.93;;;;;;;3.17;88.51;102395.53;5015552;28;20018;-76
2022/01/27 04:41:59;;;;;;;35.78;15.88;;;;;;;3.18;88.83;102386.53;5008671;28;20022;-76
2022/01/27 04:44:40;;;;;;;32.63;14.35;;;;;;;3.03;88.69;102358.09;5021732;28;20036;-79
2022/01/27 04:47:12;;;;;;;37.10;14.80;;;;;;;3.14;88.56;102382.13;5024439;28;20025;-77
2022/01/27 04:49:37;;;;;;;34.25;13.80;;;;;;;3.13;88.92;102390.22;5021187;28;20060;-72
2022/01/27 04:52:03;;;;;;;33.97;13.88;;;;;;;3.08;88.68;102387.59;5026499;28;20021;-77
2022/01/27 04:54:38;;;;;;;34.35;13.93;;;;;;;3.10;88.73;102390.25;5025665;28;20126;-76
2022/01/27 04:57:05;;;;;;;36.78;14.27;;;;;;;3.09;88.73;102384.00;5021129;28;20095;-76
2022/01/27 04:59:36;;;;;;;31.13;15.02;;;;;;;3.08;89.08;102368.78;5019225;28;20062;-78
2022/01/27 05:02:07;;;;;;;34.67;14.50;;;;;;;3.08;89.31;102366.09;5013344;28;20540;-77
2022/01/27 05:04:37;;;;;;;32.90;13.50;;;;;;;3.07;89.29;102362.50;5013206;28;20028;-77
2022/01/27 05:07:03;;;;;;;33.80;14.05;;;;;;;3.08;89.22;102355.34;5016454;28;20034;-78
2022/01/27 05:09:28;;;;;;;36.58;15.60;;;;;;;3.10;89.18;102360.69;5006286;28;20022;-78
2022/01/27 05:11:58;;;;;;;33.47;14.60;;;;;;;3.12;89.31;102356.16;5009336;28;20033;-78
2022/01/27 05:14:25;;;;;;;37.53;15.55;;;;;;;3.11;89.35;102359.75;5022620;28;20044;-77
2022/01/27 05:16:52;;;;;;;28.70;12.60;;;;;;;3.13;89.46;102358.84;5011151;28;20045;-79
2022/01/27 05:19:18;;;;;;;36.35;15.18;;;;;;;3.13;89.39;102347.19;5011306;28;22549;-78
2022/01/27 05:21:43;;;;;;;36.00;14.25;;;;;;;3.14;89.53;102351.66;5011050;28;20088;-78
2022/01/27 05:24:09;;;;;;;33.97;13.48;;;;;;;3.19;89.47;102349.78;5009762;28;20038;-77
2022/01/27 05:26:36;;;;;;;39.58;13.98;;;;;;;3.25;89.44;102333.50;5010398;28;20053;-75
2022/01/27 05:29:03;;;;;;;38.78;14.80;;;;;;;3.27;89.17;102332.59;5010465;28;20029;-77
2022/01/27 05:31:28;;;;;;;30.95;13.82;;;;;;;3.30;89.07;102324.44;5012245;28;20433;-72
2022/01/27 05:33:54;;;;;;;32.78;13.77;;;;;;;3.35;89.21;102321.66;5009775;28;20026;-77
2022/01/27 05:36:20;;;;;;;38.50;14.50;;;;;;;3.37;89.09;102322.53;5010077;28;20481;-79
2022/01/27 05:38:45;;;;;;;29.88;13.65;;;;;;;3.41;89.09;102320.69;5010800;28;20022;-72
2022/01/27 05:41:10;;;;;;;35.30;14.45;;;;;;;3.43;89.22;102319.72;5023499;28;20025;-76
2022/01/27 05:43:36;;;;;;;32.25;14.68;;;;;;;3.49;88.95;102330.34;5018893;28;20052;-72
2022/01/27 05:46:01;;;;;;;31.55;13.25;;;;;;;3.51;89.01;102322.28;5023751;28;20033;-76
2022/01/27 05:48:27;;;;;;;35.75;15.50;;;;;;;3.55;88.98;102327.56;5024932;28;20018;-75
2022/01/27 05:50:52;;;;;;;37.47;13.88;;;;;;;3.58;88.62;102322.09;5020838;28;20500;-77
2022/01/27 05:53:17;;;;;;;34.75;13.73;;;;;;;3.62;88.64;102324.75;5028806;28;20082;-72
2022/01/27 05:55:43;;;;;;;30.00;13.80;;;;;;;3.64;88.68;102318.44;5028338;28;20437;-75
2022/01/27 05:58:08;;;;;;;36.75;15.20;;;;;;;3.68;88.52;102321.94;5015058;28;20038;-72
2022/01/27 06:00:34;;;;;;;32.25;12.73;;;;;;;3.70;88.54;102325.50;5023984;28;20091;-73
2022/01/27 06:02:59;;;;;;;36.97;14.73;;;;;;;3.73;88.39;102314.66;5021993;28;20548;-77
2022/01/27 06:05:26;;;;;;;33.75;14.68;;;;;;;3.76;88.31;102322.66;5015444;28;20076;-71
2022/01/27 06:07:51;;;;;;;31.42;13.48;;;;;;;3.77;88.50;102319.94;5020056;28;20091;-77
2022/01/27 06:10:16;;;;;;;41.85;16.48;;;;;;;3.80;88.55;102313.63;5029887;28;20025;-77
2022/01/27 06:12:49;;;;;;;35.90;15.32;;;;;;;3.82;88.73;102311.75;5026533;28;20049;-76
2022/01/27 06:15:14;;;;;;;36.72;13.82;;;;;;;3.84;88.77;102307.25;5029465;28;20037;-77
2022/01/27 06:17:40;;;;;;;36.55;14.82;;;;;;;3.85;88.73;102309.03;5016562;28;20027;-78
2022/01/27 06:20:06;;;;;;;33.42;14.77;;;;;;;3.85;88.67;102309.03;5015369;28;20033;-76
2022/01/27 06:22:31;;;;;;;33.80;14.60;;;;;;;3.86;88.96;102299.13;5026534;28;20097;-73
2022/01/27 06:24:57;;;;;;;36.97;14.15;;;;;;;3.86;89.23;102291.06;5029355;28;20014;-77
2022/01/27 06:27:22;;;;;;;36.20;15.18;;;;;;;3.87;89.27;102304.50;5022914;28;20021;-77
2022/01/27 06:29:47;;;;;;;37.55;13.73;;;;;;;3.89;89.61;102291.88;5029366;28;20025;-76
2022/01/27 06:32:13;;;;;;;35.78;15.52;;;;;;;3.91;89.30;102302.63;5023374;28;20037;-72
2022/01/27 06:34:38;;;;;;;36.25;15.52;;;;;;;3.94;89.59;102313.31;5017494;28;20470;-78
2022/01/27 06:37:03;;;;;;;36.85;14.27;;;;;;;3.92;89.67;102307.09;5021370;28;20061;-73
2022/01/27 06:39:29;;;;;;;31.08;13.15;;;;;;;3.94;89.63;102298.06;5015300;28;20022;-73
2022/01/27 06:41:54;;;;;;;31.13;14.90;;;;;;;3.95;89.97;102285.47;5023667;28;20022;-79
2022/01/27 06:44:19;;;;;;;35.30;15.43;;;;;;;3.95;89.89;102282.78;5018386;28;20430;-72
2022/01/27 06:46:45;;;;;;;35.65;15.55;;;;;;;3.97;89.89;102286.34;5021057;28;20032;-72
2022/01/27 06:49:16;;;;;;;34.55;14.80;;;;;;;3.98;90.00;102285.41;5024923;28;20512;-72
2022/01/27 06:51:41;;;;;;;36.50;13.80;;;;;;;3.97;89.75;102281.84;5023738;28;20104;-77
2022/01/27 06:54:06;;;;;;;40.58;14.75;;;;;;;4.00;89.89;102286.25;5023108;28;20120;-76
2022/01/27 06:56:32;;;;;;;35.05;14.55;;;;;;;4.01;89.75;102283.56;5018886;28;20083;-76
2022/01/27 06:58:57;;;;;;;37.80;15.77;;;;;;;4.02;89.77;102273.66;5026309;28;20033;-76
2022/01/27 07:01:22;;;;;;;33.83;14.25;;;;;;;4.03;89.84;102272.75;5023572;28;20053;-77
2022/01/27 07:03:47;;;;;;;38.67;13.82;;;;;;;4.06;89.79;102270.88;5021078;28;20021;-76
2022/01/27 07:06:13;;;;;;;40.80;15.23;;;;;;;4.09;89.72;102280.66;5020086;28;20057;-74
2022/01/27 07:08:39;;;;;;;33.42;14.70;;;;;;;4.10;89.67;102282.44;5019058;28;20052;-75
2022/01/27 07:11:05;;;;;;;40.67;14.68;;;;;;;4.11;89.65;102275.28;5024847;28;20507;-76
2022/01/27 07:13:31;;;;;;;37.67;15.48;;;;;;;4.12;89.70;102277.91;5022813;28;20035;-75
2022/01/27 07:15:57;;;;;;;39.50;14.95;;;;;;;4.14;89.63;102283.25;5014375;28;20033;-77
2022/01/27 07:18:23;;;;;;;35.75;14.75;;;;;;;4.14;89.79;102284.16;5008174;28;20025;-76
2022/01/27 07:20:48;;;;;;;38.78;15.15;;;;;;;4.15;90.04;102285.03;5008197;28;20053;-76
2022/01/27 07:23:14;;;;;;;40.15;14.90;;;;;;;4.18;89.85;102285.84;5008958;28;20025;-72
2022/01/27 07:25:39;;;;;;;34.05;14.35;;;;;;;4.20;89.87;102285.84;5007696;28;20379;-77
2022/01/27 07:28:04;;;;;;;36.42;15.60;;;;;;;4.19;89.91;102282.22;5008060;28;20493;-76
2022/01/27 07:30:30;;;;;;;37.80;15.48;;;;;;;4.22;89.54;102295.63;5012878;28;20060;-77
2022/01/27 07:32:55;;;;;;;34.17;15.75;;;;;;;4.24;89.61;102290.19;5008030;28;20068;-73
2022/01/27 07:35:21;;;;;;;34.65;14.98;;;;;;;4.25;89.72;102294.69;5007794;28;20029;-73
2022/01/27 07:37:46;;;;;;;35.97;14.02;;;;;;;4.25;89.76;102295.59;5007523;28;20025;-76
2022/01/27 07:40:12;;;;;;;37.92;15.52;;;;;;;4.28;89.49;102297.28;5015378;28;20075;-77
2022/01/27 07:42:39;;;;;;;39.60;16.55;;;;;;;4.30;89.68;102298.16;5017620;28;20529;-76
2022/01/27 07:45:05;;;;;;;38.33;14.93;;;;;;;4.31;89.58;102291.84;5026916;28;20109;-77
2022/01/27 07:47:30;;;;;;;33.67;15.25;;;;;;;4.32;89.57;102294.50;5019827;28;20040;-72
2022/01/27 07:49:56;;;;;;;36.78;16.00;;;;;;;4.34;90.12;102291.78;5024790;28;20432;-71
2022/01/27 07:52:21;;;;;;;32.22;15.20;;;;;;;4.35;90.64;102290.88;5027656;28;20029;-77
2022/01/27 07:54:47;;;;;;;41.33;16.45;;;;;;;4.34;91.34;102292.69;5028051;28;20104;-78
2022/01/27 07:57:12;;;;;;;37.08;16.55;;;;;;;4.34;91.51;102307.97;5009940;28;20057;-76
2022/01/27 07:59:38;;;;;;;37.58;17.05;;;;;;;4.33;91.84;102300.78;5019220;28;20088;-76
2022/01/27 08:02:04;;;;;;;39.00;16.27;;;;;;;4.31;92.40;102299.94;5016200;28;20416;-78
2022/01/27 08:04:29;;;;;;;45.22;18.05;;;;;;;4.29;92.89;102301.75;5022445;28;20037;-77
2022/01/27 08:06:56;;;;;;;31.40;16.00;;;;;;;4.28;93.00;102297.28;5010134;28;20028;-78
2022/01/27 08:09:22;;;;;;;47.67;17.25;;;;;;;4.29;93.29;102310.75;5026758;28;20021;-78
2022/01/27 08:11:47;;;;;;;42.38;17.45;;;;;;;4.29;93.42;102307.16;5018786;28;20036;-76
2022/01/27 08:14:12;;;;;;;42.35;16.48;;;;;;;4.28;94.15;102305.38;5028455;28;20537;-76
2022/01/27 08:16:37;;;;;;;43.50;16.92;;;;;;;4.26;93.89;102296.47;5015578;28;20092;-76
2022/01/27 08:19:03;;;;;;;42.67;18.20;;;;;;;4.26;94.04;102297.34;5021881;28;20022;-76
2022/01/27 08:21:28;;;;;;;51.72;19.25;;;;;;;4.27;94.08;102295.53;5025051;28;20043;-78
2022/01/27 08:23:55;;;;;;;46.50;17.63;;;;;;;4.27;94.32;102293.72;5027705;28;20551;-72
2022/01/27 08:26:34;;;;;;;40.22;17.65;;;;;;;4.26;94.49;102301.84;5023254;28;20052;-71
2022/01/27 08:32:02;;;;;;;44.67;19.05;;;;;;;4.26;94.61;102285.69;5025195;28;20052;-71
2022/01/27 08:34:35;;;;;;;45.30;19.30;;;;;;;4.28;94.77;102291.91;5021650;28;20089;-76
2022/01/27 08:37:09;;;;;;;47.13;18.95;;;;;;;4.29;94.78;102293.69;5020005;28;20029;-76
2022/01/27 08:39:36;;;;;;;40.65;17.67;;;;;;;4.27;95.15;102284.75;5013879;28;20100;-79
2022/01/27 08:42:02;;;;;;;46.22;20.23;;;;;;;4.30;95.26;102292.78;5021940;28;20542;-76
2022/01/27 08:44:28;;;;;;;41.55;18.23;;;;;;;4.31;95.14;102295.44;5023111;28;20079;-77
2022/01/27 08:46:53;;;;;;;50.83;19.98;;;;;;;4.30;94.95;102293.66;5022397;28;20424;-76
2022/01/27 08:49:21;;;;;;;48.33;18.92;;;;;;;4.32;95.38;102297.19;5027005;28;20538;-76
2022/01/27 08:51:47;;;;;;;48.50;20.75;;;;;;;4.33;95.29;102295.38;5028667;28;20018;-76
2022/01/27 08:54:12;;;;;;;45.92;17.52;;;;;;;4.34;95.44;102289.09;5028727;28;20111;-75
2022/01/27 08:56:38;;;;;;;47.17;17.98;;;;;;;4.39;95.48;102289.88;5039255;28;20031;-77
2022/01/27 08:59:04;;;;;;;46.10;19.33;;;;;;;4.42;95.43;102292.47;5017592;28;20021;-76
2022/01/27 09:01:29;;;;;;;52.67;20.02;;;;;;;4.43;95.40;102294.28;5020521;28;20624;-76
2022/01/27 09:03:55;;;;;;;48.15;19.48;;;;;;;4.48;95.61;102296.84;5028975;28;20036;-71
2022/01/27 09:06:21;;;;;;;47.22;19.65;;;;;;;4.53;95.82;102292.25;5023110;28;20029;-76
2022/01/27 09:08:52;;;;;;;50.17;19.15;;;;;;;4.56;95.86;102294.84;5029547;28;20500;-76
2022/01/27 09:11:18;;;;;;;46.63;20.00;;;;;;;4.59;96.04;102284.00;5023733;28;20029;-76
2022/01/27 09:13:43;;;;;;;44.30;20.13;;;;;;;4.61;95.94;102290.22;5026600;28;20388;-76
2022/01/27 09:16:09;;;;;;;46.33;19.85;;;;;;;4.64;95.96;102283.88;5022731;28;20086;-70
2022/01/27 09:18:35;;;;;;;55.65;19.40;;;;;;;4.66;96.05;102285.59;5021337;28;20034;-80
2022/01/27 09:21:04;;;;;;;44.40;19.60;;;;;;;4.70;95.85;102287.31;5020654;28;20401;-76
2022/01/27 09:23:29;;;;;;;43.17;20.23;;;;;;;4.71;96.29;102291.78;5022577;28;20042;-76
2022/01/27 09:26:02;;;;;;;48.22;20.70;;;;;;;4.76;95.91;102273.69;5028897;28;20026;-76
2022/01/27 09:28:27;;;;;;;46.00;19.00;;;;;;;4.79;95.90;102281.69;5025460;28;20110;-71
2022/01/27 09:30:52;;;;;;;48.30;18.50;;;;;;;4.81;96.02;102287.06;5027942;28;20075;-72
2022/01/27 09:33:18;;;;;;;42.35;18.92;;;;;;;4.81;95.88;102293.31;5027315;28;20542;-80
2022/01/27 09:35:43;;;;;;;44.17;18.77;;;;;;;4.82;96.31;102284.31;5014132;28;20029;-80
2022/01/27 09:38:08;;;;;;;41.40;18.73;;;;;;;4.86;96.12;102286.00;5025551;28;20493;-73
2022/01/27 09:40:34;;;;;;;40.58;20.13;;;;;;;4.83;96.23;102275.28;5018956;28;20113;-74
2022/01/27 09:43:02;;;;;;;39.83;18.83;;;;;;;4.90;96.21;102286.81;5019023;28;20397;-76
2022/01/27 09:45:29;;;;;;;39.88;18.42;;;;;;;4.93;95.92;102286.72;5028607;28;20322;-79
2022/01/27 09:47:57;;;;;;;43.67;18.67;;;;;;;4.94;96.54;102275.00;5024720;28;20444;-77
2022/01/27 09:50:46;;;;;;;36.97;18.75;;;;;;;4.96;96.60;102294.75;5010879;28;20022;-76
2022/01/27 09:53:11;;;;;;;41.42;17.52;;;;;;;4.98;96.33;102292.88;5024367;28;20063;-81
2022/01/27 09:55:37;;;;;;;41.30;18.55;;;;;;;4.98;96.35;102292.88;5027865;28;20049;-73
2022/01/27 09:58:04;;;;;;;39.70;18.58;;;;;;;5.01;96.32;102300.91;5022814;28;20037;-76
2022/01/27 10:00:30;;;;;;;41.28;17.70;;;;;;;5.05;96.27;102309.81;5027239;28;20041;-76
2022/01/27 10:03:13;;;;;;;36.33;16.67;;;;;;;5.06;96.19;102301.66;5028275;28;20091;-76
2022/01/27 10:05:40;;;;;;;44.55;18.40;;;;;;;5.06;96.41;102304.34;5015778;28;20600;-78
2022/01/27 10:08:16;;;;;;;34.35;16.75;;;;;;;5.07;96.36;102299.84;5022966;28;20033;-72
2022/01/27 10:10:43;;;;;;;35.60;17.42;;;;;;;5.10;96.73;102303.34;5044514;28;20036;-75
2022/01/27 10:13:11;;;;;;;34.95;18.40;;;;;;;5.11;96.88;102298.84;5026705;28;20029;-76
2022/01/27 10:15:40;;;;;;;32.05;17.83;;;;;;;5.12;96.45;102279.91;5024889;28;20035;-77
2022/01/27 10:18:08;;;;;;;36.42;16.05;;;;;;;5.15;96.56;102287.06;5019881;28;20402;-80
2022/01/27 10:20:36;;;;;;;38.35;17.60;;;;;;;5.17;96.83;102295.09;5025297;28;20060;-76
2022/01/27 10:23:15;;;;;;;35.75;17.42;;;;;;;5.22;96.66;102312.03;5029198;28;20033;-76
2022/01/27 10:25:49;;;;;;;38.30;17.48;;;;;;;5.23;96.80;102290.44;5018281;28;20026;-77
2022/01/27 10:31:07;;;;;;;26.63;15.23;;;;;;;5.28;97.06;102291.19;5023526;28;20044;-77
2022/01/27 10:33:44;;;;;;;28.20;14.30;;;;;;;5.30;96.90;102301.94;5017636;28;20501;-77
2022/01/27 10:36:32;;;;;;;26.95;13.98;;;;;;;5.26;96.97;102282.25;5015714;28;20052;-71
2022/01/27 10:39:08;;;;;;;30.40;14.75;;;;;;;5.34;96.81;102291.00;5022153;28;20535;-80
2022/01/27 10:41:36;;;;;;;29.48;15.35;;;;;;;5.34;97.07;102291.00;5023699;28;20052;-78
2022/01/27 10:44:11;;;;;;;27.33;14.30;;;;;;;5.38;97.04;102297.22;5018620;28;20025;-71
2022/01/27 10:46:48;;;;;;;31.77;15.38;;;;;;;5.38;96.97;102287.31;5021261;28;20043;-76
2022/01/27 10:49:24;;;;;;;22.77;14.13;;;;;;;5.41;97.46;102289.06;5020713;28;20113;-72
2022/01/27 10:51:53;;;;;;;33.22;15.10;;;;;;;5.41;97.35;102293.53;5027592;28;20025;-76
2022/01/27 10:54:42;;;;;;;26.77;14.95;;;;;;;5.44;97.32;102294.34;5029129;28;20057;-75
2022/01/27 10:57:09;;;;;;;24.38;13.00;;;;;;;5.48;96.94;102300.56;5020932;28;20045;-72
2022/01/27 10:59:35;;;;;;;26.85;14.00;;;;;;;5.52;97.17;102302.25;5029312;28;20049;-76
2022/01/27 11:02:09;;;;;;;27.02;13.38;;;;;;;5.55;97.39;102305.75;5018147;28;20073;-77
2022/01/27 11:04:41;;;;;;;30.55;14.30;;;;;;;5.59;97.15;102303.81;5008892;28;20025;-76
2022/01/27 11:07:09;;;;;;;28.63;14.13;;;;;;;5.61;97.05;102291.19;5022944;28;20438;-73
2022/01/27 11:09:37;;;;;;;28.10;13.75;;;;;;;5.65;97.03;102287.47;5028507;28;20029;-80
2022/01/27 11:12:07;;;;;;;27.23;12.98;;;;;;;5.67;97.14;102284.72;5025738;28;20063;-77
2022/01/27 11:14:36;;;;;;;23.77;12.48;;;;;;;5.71;96.83;102287.28;5028701;28;20033;-72
2022/01/27 11:17:07;;;;;;;22.48;11.98;;;;;;;5.74;97.44;102289.03;5023943;28;20441;-72
2022/01/27 11:22:40;;;;;;;25.95;12.77;;;;;;;5.82;97.31;102270.75;5022165;28;20446;-78
2022/01/27 11:25:49;;;;;;;28.90;13.77;;;;;;;5.86;97.35;102265.22;5018784;28;20041;-77
2022/01/27 11:27:58;;;;;;;24.05;12.63;;;;;;;5.93;97.32;102257.88;5023264;28;20566;-77
2022/01/27 11:31:02;;;;;;;26.77;13.45;;;;;;;6.00;97.06;102263.94;5027873;28;20024;-76
2022/01/27 11:33:32;;;;;;;29.67;13.82;;;;;;;6.06;97.25;102253.88;5030749;28;20037;-76
2022/01/27 11:36:08;;;;;;;28.30;12.80;;;;;;;6.11;97.09;102248.31;5011724;28;20049;-76
2022/01/27 11:38:34;;;;;;;25.42;13.23;;;;;;;6.14;96.72;102248.19;5011692;28;20021;-76
2022/01/27 11:40:59;;;;;;;26.02;12.45;;;;;;;6.17;97.16;102249.94;5019497;28;20028;-72
2022/01/27 11:43:35;;;;;;;23.83;12.30;;;;;;;6.18;97.05;102249.00;5024205;28;20033;-76
2022/01/27 11:46:14;;;;;;;27.58;12.93;;;;;;;6.21;97.04;102244.38;5021457;28;20406;-72
2022/01/27 11:48:39;;;;;;;24.90;12.80;;;;;;;6.26;96.89;102239.72;5011097;28;20033;-77
2022/01/27 11:51:07;;;;;;;25.45;12.05;;;;;;;6.29;96.91;102238.72;5015034;28;20083;-77
2022/01/27 11:53:40;;;;;;;21.63;11.73;;;;;;;6.32;96.91;102244.91;5007512;28;20053;-78
2022/01/27 11:56:08;;;;;;;22.83;12.65;;;;;;;6.34;96.95;102239.44;5015146;28;20037;-79
2022/01/27 11:58:45;;;;;;;24.58;10.77;;;;;;;6.35;97.16;102241.25;5007754;28;20021;-79
2022/01/27 12:01:14;;;;;;;22.48;11.15;;;;;;;6.36;97.15;102235.78;5013431;28;20064;-72
2022/01/27 12:04:00;;;;;;;25.73;11.57;;;;;;;6.39;97.11;102237.50;5007108;28;20031;-77
2022/01/27 12:06:26;;;;;;;19.63;10.82;;;;;;;6.42;97.29;102239.22;5006204;28;20038;-77